createdAt,value
2022-11-23T00:01:15.718Z,-3.40
2022-11-23T00:03:43.589Z,-3.40
2022-11-23T00:06:10.538Z,-3.40
2022-11-23T00:08:37.435Z,-3.30
2022-11-23T00:11:04.767Z,-3.30
2022-11-23T00:13:31.944Z,-3.30
2022-11-23T00:15:58.842Z,-3.40
2022-11-23T00:18:25.768Z,-3.30
2022-11-23T00:20:52.765Z,-3.30
2022-11-23T00:23:19.746Z,-3.30
2022-11-23T00:25:47.037Z,-3.40
2022-11-23T00:28:14.027Z,-3.40
2022-11-23T00:30:40.936Z,-3.30
2022-11-23T00:33:07.869Z,-3.40
2022-11-23T00:35:34.790Z,-3.30
2022-11-23T00:38:01.788Z,-3.40
2022-11-23T00:40:28.897Z,-3.40
2022-11-23T00:42:55.793Z,-3.50
2022-11-23T00:45:22.699Z,-3.50
2022-11-23T00:47:49.571Z,-3.40
2022-11-23T00:50:17.122Z,-3.40
2022-11-23T00:52:44.048Z,-3.40
2022-11-23T00:55:11.036Z,-3.40
2022-11-23T00:57:37.919Z,-3.40
2022-11-23T01:00:06.906Z,-3.40
2022-11-23T01:02:36.225Z,-3.40
2022-11-23T01:05:04.277Z,-3.30
2022-11-23T01:07:31.272Z,-3.30
2022-11-23T01:09:58.245Z,-3.30
2022-11-23T01:12:25.197Z,-3.30
2022-11-23T01:14:54.266Z,-3.30
2022-11-23T01:17:21.235Z,-3.30
2022-11-23T01:19:48.133Z,-3.30
2022-11-23T01:22:15.116Z,-3.30
2022-11-23T01:24:42.011Z,-3.30
2022-11-23T01:27:14.456Z,-3.30
2022-11-23T01:29:41.371Z,-3.30
2022-11-23T01:32:08.281Z,-3.30
2022-11-23T01:34:35.215Z,-3.30
2022-11-23T01:37:02.118Z,-3.30
2022-11-23T01:39:29.327Z,-3.30
2022-11-23T01:41:56.470Z,-3.30
2022-11-23T01:44:31.960Z,-3.30
2022-11-23T01:47:09.488Z,-3.30
2022-11-23T01:49:49.674Z,-3.30
2022-11-23T01:52:22.316Z,-3.30
2022-11-23T01:54:56.900Z,-3.30
2022-11-23T01:57:31.866Z,-3.30
2022-11-23T01:59:58.778Z,-3.20
2022-11-23T02:02:28.706Z,-3.20
2022-11-23T02:04:57.190Z,-3.20
2022-11-23T02:07:25.437Z,-3.20
2022-11-23T02:09:52.917Z,-3.20
2022-11-23T02:12:19.862Z,-3.20
2022-11-23T02:14:48.114Z,-3.20
2022-11-23T02:17:18.324Z,-3.20
2022-11-23T02:20:14.063Z,-3.10
2022-11-23T02:23:19.450Z,-3.20
2022-11-23T02:25:46.295Z,-3.10
2022-11-23T02:28:17.106Z,-3.10
2022-11-23T02:30:46.199Z,-3.10
2022-11-23T02:33:13.567Z,-3.10
2022-11-23T02:35:54.898Z,-3.10
2022-11-23T02:38:22.874Z,-3.10
2022-11-23T02:40:49.940Z,-3.10
2022-11-23T02:43:17.074Z,-3.10
2022-11-23T02:45:59.642Z,-3.10
2022-11-23T02:48:26.669Z,-3.10
2022-11-23T02:50:53.622Z,-3.10
2022-11-23T02:53:20.533Z,-3.10
2022-11-23T02:55:47.587Z,-3.10
2022-11-23T02:58:14.639Z,-3.10
2022-11-23T03:00:41.668Z,-3.00
2022-11-23T03:03:08.630Z,-3.10
2022-11-23T03:05:35.874Z,-3.00
2022-11-23T03:08:02.791Z,-3.00
2022-11-23T03:10:29.809Z,-2.90
2022-11-23T03:12:57.179Z,-2.90
2022-11-23T03:15:24.925Z,-2.90
2022-11-23T03:17:52.338Z,-2.80
2022-11-23T03:20:19.473Z,-2.80
2022-11-23T03:22:47.219Z,-2.80
2022-11-23T03:25:14.522Z,-2.80
2022-11-23T03:27:41.434Z,-2.90
2022-11-23T03:30:09.714Z,-2.80
2022-11-23T03:32:37.112Z,-2.90
2022-11-23T03:35:05.066Z,-2.90
2022-11-23T03:37:32.045Z,-2.90
2022-11-23T03:39:59.006Z,-2.90
2022-11-23T03:42:25.925Z,-2.80
2022-11-23T03:44:52.874Z,-2.90
2022-11-23T03:47:25.925Z,-2.90
2022-11-23T03:49:52.837Z,-2.90
2022-11-23T03:52:19.764Z,-2.90
2022-11-23T03:54:47.164Z,-2.90
2022-11-23T03:57:14.422Z,-2.90
2022-11-23T03:59:41.416Z,-2.90
2022-11-23T04:02:08.462Z,-2.90
2022-11-23T04:04:36.263Z,-2.90
2022-11-23T04:07:03.360Z,-2.90
2022-11-23T04:09:30.596Z,-2.90
2022-11-23T04:11:57.868Z,-3.00
2022-11-23T04:14:24.748Z,-2.90
2022-11-23T04:16:51.712Z,-2.90
2022-11-23T04:19:18.643Z,-2.90
2022-11-23T04:21:45.640Z,-2.90
2022-11-23T04:24:12.712Z,-2.90
2022-11-23T04:26:40.669Z,-2.90
2022-11-23T04:29:07.673Z,-2.90
2022-11-23T04:31:34.966Z,-2.80
2022-11-23T04:34:01.942Z,-2.80
2022-11-23T04:36:28.886Z,-2.70
2022-11-23T04:38:55.898Z,-2.70
2022-11-23T04:41:23.680Z,-2.70
2022-11-23T04:43:51.940Z,-2.70
2022-11-23T04:46:18.944Z,-2.70
2022-11-23T04:48:45.894Z,-2.70
2022-11-23T04:51:13.141Z,-2.70
2022-11-23T04:53:40.526Z,-2.60
2022-11-23T04:56:07.676Z,-2.60
2022-11-23T04:58:36.576Z,-2.60
2022-11-23T05:01:04.103Z,-2.60
2022-11-23T05:03:31.480Z,-2.60
2022-11-23T05:05:59.234Z,-2.60
2022-11-23T05:08:26.139Z,-2.60
2022-11-23T05:10:53.143Z,-2.60
2022-11-23T05:13:20.154Z,-2.60
2022-11-23T05:15:47.262Z,-2.60
2022-11-23T05:18:14.360Z,-2.60
2022-11-23T05:20:41.963Z,-2.60
2022-11-23T05:23:09.878Z,-2.60
2022-11-23T05:25:36.814Z,-2.70
2022-11-23T05:28:30.077Z,-2.70
2022-11-23T05:30:51.067Z,-2.70
2022-11-23T05:33:18.205Z,-2.70
2022-11-23T05:35:45.211Z,-2.80
2022-11-23T05:38:12.186Z,-2.80
2022-11-23T05:40:39.480Z,-2.70
2022-11-23T05:43:06.444Z,-2.70
2022-11-23T05:45:33.386Z,-2.70
2022-11-23T05:48:00.330Z,-2.70
2022-11-23T05:50:28.641Z,-2.80
2022-11-23T05:52:59.171Z,-2.70
2022-11-23T05:55:27.111Z,-2.70
2022-11-23T05:57:54.558Z,-2.70
2022-11-23T06:00:22.144Z,-2.60
2022-11-23T06:02:49.113Z,-2.60
2022-11-23T06:05:16.211Z,-2.60
2022-11-23T06:07:43.173Z,-2.60
2022-11-23T06:10:11.474Z,-2.50
2022-11-23T06:12:38.361Z,-2.60
2022-11-23T06:15:05.875Z,-2.50
2022-11-23T06:17:32.781Z,-2.50
2022-11-23T06:19:59.690Z,-2.60
2022-11-23T06:22:26.716Z,-2.50
2022-11-23T06:24:53.665Z,-2.50
2022-11-23T06:27:20.666Z,-2.50
2022-11-23T06:29:47.595Z,-2.50
2022-11-23T06:32:15.374Z,-2.50
2022-11-23T06:34:42.570Z,-2.50
2022-11-23T06:37:09.529Z,-2.50
2022-11-23T06:39:36.448Z,-2.50
2022-11-23T06:42:23.778Z,-2.50
2022-11-23T06:44:50.810Z,-2.50
2022-11-23T06:47:20.764Z,-2.40
2022-11-23T06:49:51.434Z,-2.40
2022-11-23T06:52:18.331Z,-2.40
2022-11-23T06:54:45.237Z,-2.40
2022-11-23T06:57:12.207Z,-2.40
2022-11-23T06:59:43.340Z,-2.40
2022-11-23T07:02:12.144Z,-2.40
2022-11-23T07:04:39.024Z,-2.40
2022-11-23T07:07:08.200Z,-2.50
2022-11-23T07:09:35.384Z,-2.50
2022-11-23T07:12:02.744Z,-2.40
2022-11-23T07:14:29.668Z,-2.30
2022-11-23T07:16:56.784Z,-2.30
2022-11-23T07:19:23.683Z,-2.40
2022-11-23T07:21:50.559Z,-2.40
2022-11-23T07:24:17.463Z,-2.40
2022-11-23T07:26:44.376Z,-2.30
2022-11-23T07:29:11.724Z,-2.30
2022-11-23T07:31:38.646Z,-2.20
2022-11-23T07:34:05.552Z,-2.20
2022-11-23T07:36:33.371Z,-2.20
2022-11-23T07:39:00.403Z,-2.20
2022-11-23T07:41:27.672Z,-2.20
2022-11-23T07:43:55.132Z,-2.10
2022-11-23T07:46:22.363Z,-2.10
2022-11-23T07:48:49.269Z,-2.10
2022-11-23T07:51:17.025Z,-2.10
2022-11-23T07:53:43.995Z,-2.10
2022-11-23T07:56:11.034Z,-2.10
2022-11-23T07:58:38.029Z,-2.10
2022-11-23T08:01:05.127Z,-2.10
2022-11-23T08:03:32.182Z,-2.10
2022-11-23T08:05:59.250Z,-2.10
2022-11-23T08:08:26.186Z,-2.10
2022-11-23T08:10:54.480Z,-2.10
2022-11-23T08:13:22.622Z,-2.10
2022-11-23T08:15:55.672Z,-2.10
2022-11-23T08:18:24.299Z,-2.10
2022-11-23T08:20:51.230Z,-2.10
2022-11-23T08:23:18.382Z,-2.10
2022-11-23T08:25:45.782Z,-2.00
2022-11-23T08:28:12.848Z,-2.00
2022-11-23T08:30:42.288Z,-1.90
2022-11-23T08:33:10.109Z,-1.90
2022-11-23T08:35:38.174Z,-1.90
2022-11-23T08:38:06.271Z,-1.90
2022-11-23T08:40:33.921Z,-2.00
2022-11-23T08:43:00.913Z,-2.00
2022-11-23T08:45:28.079Z,-2.00
2022-11-23T08:47:59.722Z,-2.10
2022-11-23T08:50:27.223Z,-2.10
2022-11-23T08:52:58.552Z,-2.10
2022-11-23T08:55:26.389Z,-2.00
2022-11-23T08:57:59.793Z,-2.10
2022-11-23T09:00:27.149Z,-2.10
2022-11-23T09:02:54.592Z,-2.10
2022-11-23T09:05:21.923Z,-2.10
2022-11-23T09:07:48.914Z,-2.10
2022-11-23T09:10:18.799Z,-2.10
2022-11-23T09:12:47.226Z,-2.10
2022-11-23T09:15:14.731Z,-2.00
2022-11-23T09:17:41.868Z,-2.00
2022-11-23T09:20:10.362Z,-1.90
2022-11-23T09:22:37.462Z,-1.90
2022-11-23T09:25:05.339Z,-1.90
2022-11-23T09:27:32.285Z,-1.80
2022-11-23T09:29:59.303Z,-1.80
2022-11-23T09:32:26.783Z,-1.70
2022-11-23T09:34:56.449Z,-1.70
2022-11-23T09:37:23.342Z,-1.70
2022-11-23T09:39:50.274Z,-1.60
2022-11-23T09:42:36.067Z,-1.60
2022-11-23T09:45:53.763Z,-1.60
2022-11-23T09:48:39.128Z,-1.60
2022-11-23T09:51:19.693Z,-1.60
2022-11-23T09:53:55.408Z,-1.60
2022-11-23T09:56:35.401Z,-1.60
2022-11-23T09:59:11.984Z,-1.60
2022-11-23T10:01:39.338Z,-1.60
2022-11-23T10:04:11.001Z,-1.70
2022-11-23T10:06:40.554Z,-1.60
2022-11-23T10:09:28.571Z,-1.70
2022-11-23T10:12:15.707Z,-1.60
2022-11-23T10:14:54.282Z,-1.60
2022-11-23T10:20:28.197Z,-1.50
2022-11-23T10:23:03.189Z,-1.50
2022-11-23T10:25:39.243Z,-1.40
2022-11-23T10:28:16.250Z,-1.40
2022-11-23T10:30:45.530Z,-1.40
2022-11-23T10:33:35.205Z,-1.40
2022-11-23T10:36:02.291Z,-1.40
2022-11-23T10:38:29.485Z,-1.40
2022-11-23T10:41:18.027Z,-1.40
2022-11-23T10:43:56.685Z,-1.40
2022-11-23T10:46:33.977Z,-1.40
2022-11-23T10:49:09.850Z,-1.40
2022-11-23T10:51:37.638Z,-1.40
2022-11-23T10:54:23.100Z,-1.30
2022-11-23T10:56:52.353Z,-1.30
2022-11-23T10:59:39.108Z,-1.20
2022-11-23T11:02:15.471Z,-1.20
2022-11-23T11:04:42.904Z,-1.10
2022-11-23T11:07:26.405Z,-1.10
2022-11-23T11:10:01.548Z,-1.10
2022-11-23T11:12:34.480Z,-1.10
2022-11-23T11:15:11.670Z,-1.10
2022-11-23T11:17:41.088Z,-1.10
2022-11-23T11:20:34.099Z,-1.20
2022-11-23T11:23:16.655Z,-1.20
2022-11-23T11:25:44.000Z,-1.30
2022-11-23T11:28:36.656Z,-1.30
2022-11-23T11:31:28.753Z,-1.40
2022-11-23T11:34:10.562Z,-1.40
2022-11-23T11:37:02.705Z,-1.50
2022-11-23T11:39:38.000Z,-1.50
2022-11-23T11:42:11.904Z,-1.60
2022-11-23T11:44:42.120Z,-1.60
2022-11-23T11:47:28.139Z,-1.60
2022-11-23T11:49:58.996Z,-1.70
2022-11-23T11:52:30.133Z,-1.60
2022-11-23T11:55:12.747Z,-1.60
2022-11-23T11:58:10.132Z,-1.50
2022-11-23T12:00:44.829Z,-1.50
2022-11-23T12:03:36.520Z,-1.50
2022-11-23T12:06:11.281Z,-1.40
2022-11-23T12:09:04.848Z,-1.40
2022-11-23T12:11:32.410Z,-1.40
2022-11-23T12:14:03.329Z,-1.40
2022-11-23T12:16:45.467Z,-1.40
2022-11-23T12:19:18.147Z,-1.30
2022-11-23T12:22:11.800Z,-1.40
2022-11-23T12:24:46.446Z,-1.30
2022-11-23T12:27:46.612Z,-1.30
2022-11-23T12:30:50.267Z,-1.30
2022-11-23T12:33:38.641Z,-1.30
2022-11-23T12:36:20.551Z,-1.40
2022-11-23T12:39:05.870Z,-1.40
2022-11-23T12:42:06.865Z,-1.40
2022-11-23T12:44:52.218Z,-1.50
2022-11-23T12:47:35.201Z,-1.50
2022-11-23T12:50:21.468Z,-1.60
2022-11-23T12:53:00.822Z,-1.50
2022-11-23T12:56:00.803Z,-1.60
2022-11-23T12:58:32.878Z,-1.60
2022-11-23T13:01:18.489Z,-1.60
2022-11-23T13:03:57.060Z,-1.50
2022-11-23T13:07:12.706Z,-1.50
2022-11-23T13:10:00.128Z,-1.50
2022-11-23T13:12:32.952Z,-1.50
2022-11-23T13:15:25.045Z,-1.50
2022-11-23T13:18:11.376Z,-1.50
2022-11-23T13:20:59.277Z,-1.60
2022-11-23T13:23:26.285Z,-1.60
2022-11-23T13:26:22.402Z,-1.60
2022-11-23T13:28:53.850Z,-1.60
2022-11-23T13:31:33.697Z,-1.60
2022-11-23T13:34:03.023Z,-1.50
2022-11-23T13:36:49.243Z,-1.50
2022-11-23T13:39:45.277Z,-1.50
2022-11-23T13:42:13.646Z,-1.50
2022-11-23T13:44:40.657Z,-1.60
2022-11-23T13:47:18.137Z,-1.60
2022-11-23T13:50:08.228Z,-1.60
2022-11-23T13:52:36.903Z,-1.60
2022-11-23T13:55:11.153Z,-1.60
2022-11-23T13:57:43.079Z,-1.60
2022-11-23T14:00:44.217Z,-1.70
2022-11-23T14:03:42.382Z,-1.70
2022-11-23T14:06:21.980Z,-1.70
2022-11-23T14:08:52.735Z,-1.60
2022-11-23T14:11:22.509Z,-1.70
2022-11-23T14:14:01.921Z,-1.70
2022-11-23T14:17:13.047Z,-1.70
2022-11-23T14:19:39.818Z,-1.70
2022-11-23T14:22:31.091Z,-1.70
2022-11-23T14:25:32.103Z,-1.70
2022-11-23T14:28:17.613Z,-1.70
2022-11-23T14:34:32.512Z,-1.70
2022-11-23T14:37:05.762Z,-1.70
2022-11-23T14:39:59.556Z,-1.70
2022-11-23T14:42:29.312Z,-1.60
2022-11-23T14:45:02.699Z,-1.70
2022-11-23T14:47:31.055Z,-1.70
2022-11-23T14:49:58.509Z,-1.80
2022-11-23T14:52:29.439Z,-1.70
2022-11-23T14:55:00.145Z,-1.70
2022-11-23T14:57:29.285Z,-1.80
2022-11-23T14:59:58.939Z,-1.80
2022-11-23T15:02:30.475Z,-1.80
2022-11-23T15:05:09.140Z,-1.70
2022-11-23T15:07:55.862Z,-1.70
2022-11-23T15:10:35.720Z,-1.70
2022-11-23T15:13:02.731Z,-1.70
2022-11-23T15:15:32.306Z,-1.70
2022-11-23T15:18:01.268Z,-1.70
2022-11-23T15:20:45.384Z,-1.70
2022-11-23T15:23:21.253Z,-1.70
2022-11-23T15:25:55.915Z,-1.70
2022-11-23T15:28:27.366Z,-1.70
2022-11-23T15:30:58.258Z,-1.70
2022-11-23T15:33:26.500Z,-1.70
2022-11-23T15:35:54.908Z,-1.70
2022-11-23T15:38:23.849Z,-1.70
2022-11-23T15:40:51.812Z,-1.60
2022-11-23T15:43:20.158Z,-1.60
2022-11-23T15:45:47.379Z,-1.60
2022-11-23T15:48:27.148Z,-1.60
2022-11-23T15:50:56.243Z,-1.60
2022-11-23T15:53:31.099Z,-1.60
2022-11-23T15:56:06.172Z,-1.70
2022-11-23T15:58:36.560Z,-1.70
2022-11-23T16:01:13.107Z,-1.70
2022-11-23T16:03:40.047Z,-1.60
2022-11-23T16:06:13.429Z,-1.60
2022-11-23T16:08:41.418Z,-1.70
2022-11-23T16:11:22.467Z,-1.70
2022-11-23T16:13:49.529Z,-1.70
2022-11-23T16:16:22.052Z,-1.70
2022-11-23T16:18:57.942Z,-1.70
2022-11-23T16:21:25.603Z,-1.70
2022-11-23T16:23:55.793Z,-1.70
2022-11-23T16:26:31.670Z,-1.70
2022-11-23T16:29:00.261Z,-1.70
2022-11-23T16:31:28.303Z,-1.70
2022-11-23T16:33:56.390Z,-1.70
2022-11-23T16:36:26.540Z,-1.70
2022-11-23T16:38:53.518Z,-1.60
2022-11-23T16:41:20.490Z,-1.60
2022-11-23T16:43:53.986Z,-1.60
2022-11-23T16:46:21.358Z,-1.60
2022-11-23T16:48:48.421Z,-1.60
2022-11-23T16:51:15.981Z,-1.60
2022-11-23T16:54:11.961Z,-1.60
2022-11-23T16:56:31.698Z,-1.60
2022-11-23T16:58:59.643Z,-1.60
2022-11-23T17:01:30.801Z,-1.60
2022-11-23T17:03:57.837Z,-1.50
2022-11-23T17:06:25.152Z,-1.50
2022-11-23T17:09:03.183Z,-1.60
2022-11-23T17:11:37.321Z,-1.50
2022-11-23T17:14:05.445Z,-1.60
2022-11-23T17:16:34.239Z,-1.60
2022-11-23T17:19:01.312Z,-1.60
2022-11-23T17:21:28.273Z,-1.60
2022-11-23T17:23:55.390Z,-1.50
2022-11-23T17:26:35.666Z,-1.50
2022-11-23T17:29:05.543Z,-1.50
2022-11-23T17:31:33.199Z,-1.50
2022-11-23T17:34:00.240Z,-1.60
2022-11-23T17:36:27.789Z,-1.50
2022-11-23T17:38:54.993Z,-1.60
2022-11-23T17:41:22.011Z,-1.50
2022-11-23T17:43:48.959Z,-1.60
2022-11-23T17:46:19.607Z,-1.60
2022-11-23T17:48:46.946Z,-1.60
2022-11-23T17:51:14.121Z,-1.60
2022-11-23T17:53:41.385Z,-1.60
2022-11-23T17:56:17.130Z,-1.60
2022-11-23T17:58:44.586Z,-1.60
2022-11-23T18:01:16.163Z,-1.60
2022-11-23T18:03:45.001Z,-1.70
2022-11-23T18:06:17.143Z,-1.60
2022-11-23T18:08:45.311Z,-1.70
2022-11-23T18:11:12.486Z,-1.70
2022-11-23T18:13:39.812Z,-1.70
2022-11-23T18:16:07.189Z,-1.70
2022-11-23T18:18:34.215Z,-1.70
2022-11-23T18:21:02.014Z,-1.60
2022-11-23T18:23:29.405Z,-1.60
2022-11-23T18:26:23.187Z,-1.70
2022-11-23T18:28:50.541Z,-1.70
2022-11-23T18:31:18.231Z,-1.70
2022-11-23T18:33:45.927Z,-1.70
2022-11-23T18:36:13.057Z,-1.70
2022-11-23T18:38:40.749Z,-1.70
2022-11-23T18:41:07.880Z,-1.70
2022-11-23T18:43:35.208Z,-1.80
2022-11-23T18:46:06.246Z,-1.70
2022-11-23T18:48:33.354Z,-1.70
2022-11-23T18:51:01.540Z,-1.70
2022-11-23T18:53:28.749Z,-1.70
2022-11-23T18:56:00.307Z,-1.70
2022-11-23T18:58:33.030Z,-1.70
2022-11-23T19:00:59.978Z,-1.70
2022-11-23T19:03:26.945Z,-1.70
2022-11-23T19:06:00.987Z,-1.70
2022-11-23T19:08:27.977Z,-1.70
2022-11-23T19:10:54.942Z,-1.70
2022-11-23T19:13:21.864Z,-1.70
2022-11-23T19:15:48.894Z,-1.70
2022-11-23T19:18:15.933Z,-1.70
2022-11-23T19:20:42.910Z,-1.70
2022-11-23T19:23:09.814Z,-1.70
2022-11-23T19:25:36.831Z,-1.70
2022-11-23T19:28:03.856Z,-1.70
2022-11-23T19:30:30.837Z,-1.70
2022-11-23T19:32:58.859Z,-1.70
2022-11-23T19:35:25.751Z,-1.70
2022-11-23T19:37:52.628Z,-1.70
2022-11-23T19:40:19.658Z,-1.70
2022-11-23T19:42:46.584Z,-1.70
2022-11-23T19:45:13.563Z,-1.70
2022-11-23T19:47:40.483Z,-1.70
2022-11-23T19:50:07.864Z,-1.70
2022-11-23T19:53:03.773Z,-1.70
2022-11-23T19:55:21.726Z,-1.70
2022-11-23T19:57:48.623Z,-1.70
2022-11-23T20:00:16.300Z,-1.70
2022-11-23T20:02:43.281Z,-1.70
2022-11-23T20:05:12.941Z,-1.70
2022-11-23T20:07:39.997Z,-1.70
2022-11-23T20:10:07.667Z,-1.70
2022-11-23T20:12:34.573Z,-1.60
2022-11-23T20:15:02.617Z,-1.60
2022-11-23T20:17:30.243Z,-1.60
2022-11-23T20:21:23.851Z,-1.60
2022-11-23T20:23:09.703Z,-1.60
2022-11-23T20:25:41.189Z,-1.60
2022-11-23T20:28:12.242Z,-1.50
2022-11-23T20:30:39.241Z,-1.50
2022-11-23T20:33:06.564Z,-1.50
2022-11-23T20:35:33.570Z,-1.50
2022-11-23T20:38:00.483Z,-1.60
2022-11-23T20:40:27.994Z,-1.60
2022-11-23T20:42:58.984Z,-1.50
2022-11-23T20:45:26.789Z,-1.50
2022-11-23T20:47:54.898Z,-1.50
2022-11-23T20:50:27.422Z,-1.50
2022-11-23T20:52:59.407Z,-1.50
2022-11-23T20:55:26.864Z,-1.50
2022-11-23T20:57:55.066Z,-1.50
2022-11-23T21:00:23.163Z,-1.60
2022-11-23T21:02:51.814Z,-1.50
2022-11-23T21:05:19.514Z,-1.50
2022-11-23T21:07:48.222Z,-1.50
2022-11-23T21:10:34.497Z,-1.60
2022-11-23T21:13:20.467Z,-1.50
2022-11-23T21:15:47.593Z,-1.50
2022-11-23T21:18:14.933Z,-1.50
2022-11-23T21:20:43.413Z,-1.60
2022-11-23T21:23:10.557Z,-1.60
2022-11-23T21:25:37.536Z,-1.60
2022-11-23T21:28:04.591Z,-1.60
2022-11-23T21:30:31.821Z,-1.60
2022-11-23T21:32:58.775Z,-1.60
2022-11-23T21:35:25.774Z,-1.60
2022-11-23T21:37:52.685Z,-1.60
2022-11-23T21:40:19.664Z,-1.60
2022-11-23T21:42:46.619Z,-1.60
2022-11-23T21:45:13.659Z,-1.60
2022-11-23T21:47:40.767Z,-1.60
2022-11-23T21:50:08.655Z,-1.60
2022-11-23T21:52:35.624Z,-1.60
2022-11-23T21:55:02.587Z,-1.60
2022-11-23T21:57:29.517Z,-1.60
2022-11-23T21:59:56.448Z,-1.60
2022-11-23T22:02:25.407Z,-1.70
2022-11-23T22:04:52.382Z,-1.70
2022-11-23T22:07:19.530Z,-1.60
2022-11-23T22:09:48.804Z,-1.60
2022-11-23T22:12:15.740Z,-1.70
2022-11-23T22:14:45.442Z,-1.70
2022-11-23T22:17:12.496Z,-1.70
2022-11-23T22:19:39.443Z,-1.70
2022-11-23T22:22:07.560Z,-1.80
2022-11-23T22:24:34.861Z,-1.70
2022-11-23T22:27:01.992Z,-1.80
2022-11-23T22:29:29.125Z,-1.80
2022-11-23T22:31:56.143Z,-1.80
2022-11-23T22:34:23.241Z,-1.90
2022-11-23T22:36:51.586Z,-1.90
2022-11-23T22:39:18.541Z,-1.90
2022-11-23T22:41:45.487Z,-1.90
2022-11-23T22:44:12.429Z,-1.90
2022-11-23T22:46:39.984Z,-2.00
2022-11-23T22:49:07.555Z,-2.00
2022-11-23T22:51:35.340Z,-2.00
2022-11-23T22:54:02.817Z,-2.00
2022-11-23T22:56:31.341Z,-2.00
2022-11-23T22:58:58.728Z,-2.10
2022-11-23T23:01:28.773Z,-2.10
2022-11-23T23:03:57.657Z,-2.10
2022-11-23T23:06:26.971Z,-2.10
2022-11-23T23:08:56.640Z,-2.10
2022-11-23T23:11:25.227Z,-2.10
2022-11-23T23:13:52.816Z,-2.10
2022-11-23T23:16:20.653Z,-2.10
2022-11-23T23:18:47.857Z,-2.00
2022-11-23T23:21:17.106Z,-2.10
2022-11-23T23:23:49.783Z,-2.00
2022-11-23T23:26:19.216Z,-2.10
2022-11-23T23:28:47.088Z,-2.00
2022-11-23T23:31:16.627Z,-2.00
2022-11-23T23:33:44.662Z,-2.00
2022-11-23T23:36:21.080Z,-2.00
2022-11-23T23:38:48.548Z,-2.00
2022-11-23T23:41:16.021Z,-2.00
2022-11-23T23:43:43.744Z,-2.00
2022-11-23T23:46:13.648Z,-2.10
2022-11-23T23:48:41.510Z,-2.10
2022-11-23T23:51:20.018Z,-2.10
2022-11-23T23:53:47.698Z,-2.10
2022-11-23T23:56:23.507Z,-2.10
2022-11-23T23:58:50.988Z,-2.10
